Time;durP1;ratioP1;P1;durP2;ratioP2;P2;SDS_P1;SDS_P2;PMS_P1;PMS_P2;Temp;Humidity;BMP_temperature;BMP_pressure;BME280_temperature;BME280_humidity;BME280_pressure;Samples;Min_cycle;Max_cycle;Signal;HPM_P1;HPM_P2
2023/12/24 00:00:07;;;;;;;17.33;3.28;;;;;;;;;;5004862;28;20962;-60
2023/12/24 00:02:33;;;;;;;17.08;3.42;;;;;;;;;;5005201;28;20040;-60
2023/12/24 00:05:00;;;;;;;18.08;2.65;;;;;;;;;;5004947;28;20084;-60
2023/12/24 00:07:26;;;;;;;15.38;2.70;;;;;;;;;;5004899;28;20112;-60
2023/12/24 00:09:52;;;;;;;11.32;2.25;;;;;;;;;;5008152;28;20040;-60
2023/12/24 00:12:18;;;;;;;18.83;3.53;;;;;;;;;;5008323;28;20030;-60
2023/12/24 00:14:44;;;;;;;15.85;3.55;;;;;;;;;;5006637;28;20113;-60
2023/12/24 00:17:11;;;;;;;15.23;3.10;;;;;;;;;;5007787;28;20037;-60
2023/12/24 00:19:37;;;;;;;16.58;4.05;;;;;;;;;;5008862;28;20041;-60
2023/12/24 00:22:05;;;;;;;18.60;3.78;;;;;;;;;;5008961;28;20777;-60
2023/12/24 00:24:31;;;;;;;16.10;3.28;;;;;;;;;;5008570;28;20034;-60
2023/12/24 00:26:57;;;;;;;14.57;3.40;;;;;;;;;;5008421;28;20040;-60
2023/12/24 00:29:23;;;;;;;13.48;2.97;;;;;;;;;;5007212;28;20540;-60
2023/12/24 00:31:49;;;;;;;13.70;2.80;;;;;;;;;;5008766;28;20421;-60
2023/12/24 00:34:16;;;;;;;15.32;3.30;;;;;;;;;;5009194;28;20025;-61
2023/12/24 00:36:42;;;;;;;14.85;3.67;;;;;;;;;;5008015;28;20030;-60
2023/12/24 00:39:08;;;;;;;15.77;3.05;;;;;;;;;;5009058;28;20037;-60
2023/12/24 00:41:34;;;;;;;17.85;2.95;;;;;;;;;;5008675;28;20041;-60
2023/12/24 00:44:00;;;;;;;11.35;2.33;;;;;;;;;;5007008;28;20059;-60
2023/12/24 00:46:26;;;;;;;20.20;3.78;;;;;;;;;;5005820;28;20029;-60
2023/12/24 00:48:52;;;;;;;17.67;3.28;;;;;;;;;;5008156;28;20022;-60
2023/12/24 00:51:18;;;;;;;16.05;2.92;;;;;;;;;;5008525;28;20044;-61
2023/12/24 00:53:44;;;;;;;16.80;3.45;;;;;;;;;;5007638;28;20032;-60
2023/12/24 00:56:10;;;;;;;12.20;2.67;;;;;;;;;;5008080;28;20056;-60
2023/12/24 00:58:37;;;;;;;20.55;3.10;;;;;;;;;;5007523;28;20065;-60
2023/12/24 01:01:03;;;;;;;15.27;3.03;;;;;;;;;;5007458;28;20045;-60
2023/12/24 01:03:29;;;;;;;15.32;2.97;;;;;;;;;;5007671;28;20069;-60
2023/12/24 01:05:55;;;;;;;15.68;2.97;;;;;;;;;;5008372;28;20033;-60
2023/12/24 01:08:21;;;;;;;17.40;2.72;;;;;;;;;;5008628;28;20030;-60
2023/12/24 01:10:48;;;;;;;13.13;2.33;;;;;;;;;;5005779;28;20425;-60
2023/12/24 01:13:19;;;;;;;21.45;3.80;;;;;;;;;;5008810;28;20029;-60
2023/12/24 01:15:47;;;;;;;16.45;3.83;;;;;;;;;;5007259;28;20120;-60
2023/12/24 01:18:14;;;;;;;14.60;2.88;;;;;;;;;;5008129;28;20123;-60
2023/12/24 01:20:40;;;;;;;15.68;2.88;;;;;;;;;;5007322;28;20040;-60
2023/12/24 01:23:06;;;;;;;12.25;2.60;;;;;;;;;;5008223;28;20040;-60
2023/12/24 01:25:32;;;;;;;11.27;2.38;;;;;;;;;;5006410;28;20041;-60
2023/12/24 01:27:58;;;;;;;13.63;2.83;;;;;;;;;;5007773;28;20159;-60
2023/12/24 01:30:24;;;;;;;11.63;2.35;;;;;;;;;;5007537;28;20088;-60
2023/12/24 01:32:50;;;;;;;21.85;2.80;;;;;;;;;;5007525;28;20065;-60
2023/12/24 01:35:17;;;;;;;12.50;2.35;;;;;;;;;;5007249;28;20049;-60
2023/12/24 01:37:43;;;;;;;18.63;2.47;;;;;;;;;;5007190;28;20041;-60
2023/12/24 01:40:09;;;;;;;14.40;2.70;;;;;;;;;;5008015;28;20042;-60
2023/12/24 01:42:35;;;;;;;15.75;3.05;;;;;;;;;;5008144;28;20045;-60
2023/12/24 01:45:01;;;;;;;10.65;2.50;;;;;;;;;;5007803;28;20037;-60
2023/12/24 01:47:27;;;;;;;12.45;2.78;;;;;;;;;;5006894;28;20041;-60
2023/12/24 01:49:54;;;;;;;11.40;2.05;;;;;;;;;;5006368;28;20048;-60
2023/12/24 01:52:20;;;;;;;11.57;2.80;;;;;;;;;;5007807;28;20034;-60
2023/12/24 01:54:47;;;;;;;12.80;2.63;;;;;;;;;;5007604;28;20581;-60
2023/12/24 01:57:13;;;;;;;10.88;2.45;;;;;;;;;;5006677;28;20036;-60
2023/12/24 01:59:41;;;;;;;12.32;2.30;;;;;;;;;;5005738;28;20037;-60
2023/12/24 02:02:07;;;;;;;10.00;2.08;;;;;;;;;;5007183;28;20029;-60
2023/12/24 02:04:34;;;;;;;13.55;2.40;;;;;;;;;;5007221;28;20814;-60
2023/12/24 02:07:00;;;;;;;15.00;2.45;;;;;;;;;;5007071;28;20041;-60
2023/12/24 02:09:26;;;;;;;11.05;2.90;;;;;;;;;;5007748;28;21110;-60
2023/12/24 02:11:52;;;;;;;9.25;1.95;;;;;;;;;;5007333;28;20119;-60
2023/12/24 02:14:18;;;;;;;13.27;3.08;;;;;;;;;;5007416;28;20048;-60
2023/12/24 02:16:46;;;;;;;14.02;3.45;;;;;;;;;;5006204;28;20045;-60
2023/12/24 02:19:16;;;;;;;12.75;2.50;;;;;;;;;;5006994;28;20045;-60
2023/12/24 02:21:42;;;;;;;14.20;3.28;;;;;;;;;;5007250;28;20029;-60
2023/12/24 02:24:08;;;;;;;16.70;2.70;;;;;;;;;;5006229;28;20042;-60
2023/12/24 02:26:38;;;;;;;15.52;3.65;;;;;;;;;;5006476;28;20033;-60
2023/12/24 02:29:15;;;;;;;14.75;2.58;;;;;;;;;;5006359;28;20036;-60
2023/12/24 02:31:43;;;;;;;10.93;2.53;;;;;;;;;;5007043;28;20041;-60
2023/12/24 02:34:09;;;;;;;16.85;3.22;;;;;;;;;;5007082;28;20033;-60
2023/12/24 02:36:36;;;;;;;13.80;2.47;;;;;;;;;;5006435;28;20025;-60
2023/12/24 02:39:02;;;;;;;12.43;2.60;;;;;;;;;;5006230;28;20037;-60
2023/12/24 02:41:28;;;;;;;15.30;3.03;;;;;;;;;;5006968;28;20576;-60
2023/12/24 02:43:54;;;;;;;14.48;2.63;;;;;;;;;;5007150;28;20408;-60
2023/12/24 02:46:20;;;;;;;16.20;3.10;;;;;;;;;;5006757;28;20041;-60
2023/12/24 02:48:46;;;;;;;14.82;2.80;;;;;;;;;;5005861;28;20034;-60
2023/12/24 02:51:12;;;;;;;17.67;3.20;;;;;;;;;;5007298;28;20961;-60
2023/12/24 02:53:38;;;;;;;13.52;2.92;;;;;;;;;;5007243;28;20087;-60
2023/12/24 02:56:04;;;;;;;13.15;2.88;;;;;;;;;;5005439;28;20037;-60
2023/12/24 02:58:30;;;;;;;14.18;2.80;;;;;;;;;;5005145;28;20088;-60
2023/12/24 03:00:56;;;;;;;14.32;2.60;;;;;;;;;;5006529;28;20740;-60
2023/12/24 03:03:22;;;;;;;10.50;2.13;;;;;;;;;;5006496;28;20044;-60
2023/12/24 03:05:48;;;;;;;12.60;2.38;;;;;;;;;;5005949;28;20033;-60
2023/12/24 03:08:15;;;;;;;11.70;2.10;;;;;;;;;;5005772;28;20117;-60
2023/12/24 03:10:41;;;;;;;16.42;2.65;;;;;;;;;;5005788;28;20651;-60
2023/12/24 03:13:07;;;;;;;14.98;3.10;;;;;;;;;;5006134;28;21894;-60
2023/12/24 03:15:33;;;;;;;9.82;2.25;;;;;;;;;;5006123;28;21191;-60
2023/12/24 03:17:59;;;;;;;12.48;2.45;;;;;;;;;;5006442;28;20042;-60
2023/12/24 03:20:26;;;;;;;15.77;2.83;;;;;;;;;;5006152;28;20025;-60
2023/12/24 03:22:52;;;;;;;10.05;2.00;;;;;;;;;;5006341;28;20066;-60
2023/12/24 03:25:18;;;;;;;13.93;2.47;;;;;;;;;;5005115;28;20038;-60
2023/12/24 03:27:44;;;;;;;12.70;1.63;;;;;;;;;;5005440;28;21025;-60
2023/12/24 03:30:10;;;;;;;12.25;2.08;;;;;;;;;;5005393;28;20666;-60
2023/12/24 03:32:36;;;;;;;10.30;1.90;;;;;;;;;;5005703;28;21140;-60
2023/12/24 03:35:03;;;;;;;8.95;2.20;;;;;;;;;;5006076;28;20091;-60
2023/12/24 03:37:29;;;;;;;10.30;1.80;;;;;;;;;;5005713;28;20029;-60
2023/12/24 03:39:55;;;;;;;6.43;1.60;;;;;;;;;;5005787;28;20029;-60
2023/12/24 03:42:21;;;;;;;9.18;1.55;;;;;;;;;;5005423;28;20045;-60
2023/12/24 03:44:47;;;;;;;7.13;1.35;;;;;;;;;;5010374;28;20079;-60
2023/12/24 03:47:13;;;;;;;7.15;1.48;;;;;;;;;;5009755;28;20107;-60
2023/12/24 03:49:39;;;;;;;9.18;1.67;;;;;;;;;;5009641;28;20040;-60
2023/12/24 03:52:05;;;;;;;5.05;1.38;;;;;;;;;;5009173;28;20033;-60
2023/12/24 03:54:31;;;;;;;6.57;1.13;;;;;;;;;;5008404;28;20037;-60
2023/12/24 03:56:57;;;;;;;5.93;1.48;;;;;;;;;;5009389;28;20808;-60
2023/12/24 03:59:24;;;;;;;5.78;1.38;;;;;;;;;;5008915;28;20509;-60
2023/12/24 04:01:50;;;;;;;5.10;1.20;;;;;;;;;;5008758;28;20041;-60
2023/12/24 04:04:16;;;;;;;5.93;1.20;;;;;;;;;;5009013;28;20061;-60
2023/12/24 04:06:42;;;;;;;5.95;1.23;;;;;;;;;;5008947;28;21724;-60
2023/12/24 04:09:09;;;;;;;4.93;1.30;;;;;;;;;;5009248;28;20649;-60
2023/12/24 04:11:35;;;;;;;6.15;1.13;;;;;;;;;;5009438;28;20024;-60
2023/12/24 04:14:01;;;;;;;3.35;1.10;;;;;;;;;;5009751;28;20029;-60
2023/12/24 04:16:27;;;;;;;2.67;1.10;;;;;;;;;;5009355;28;20887;-60
2023/12/24 04:18:53;;;;;;;4.43;1.60;;;;;;;;;;5009252;28;20052;-60
2023/12/24 04:21:19;;;;;;;6.60;1.20;;;;;;;;;;5009495;28;20103;-60
2023/12/24 04:23:45;;;;;;;4.57;1.65;;;;;;;;;;5009431;28;20500;-60
2023/12/24 04:26:11;;;;;;;5.03;1.15;;;;;;;;;;5006932;28;20401;-60
2023/12/24 04:28:37;;;;;;;4.13;1.15;;;;;;;;;;5009568;28;20109;-60
2023/12/24 04:31:03;;;;;;;5.82;1.50;;;;;;;;;;5009233;28;20033;-60
2023/12/24 04:33:30;;;;;;;3.78;1.20;;;;;;;;;;5009222;28;20025;-60
2023/12/24 04:35:56;;;;;;;5.75;1.50;;;;;;;;;;5009158;28;20033;-60
2023/12/24 04:38:22;;;;;;;5.60;1.48;;;;;;;;;;5008380;28;20033;-60
2023/12/24 04:40:48;;;;;;;4.05;1.25;;;;;;;;;;5008714;28;20072;-60
2023/12/24 04:43:14;;;;;;;3.58;1.13;;;;;;;;;;5008792;28;20034;-60
2023/12/24 04:45:40;;;;;;;6.63;1.25;;;;;;;;;;5008942;28;20045;-60
2023/12/24 04:48:06;;;;;;;4.78;1.40;;;;;;;;;;5008371;28;20044;-60
2023/12/24 04:50:33;;;;;;;9.48;1.67;;;;;;;;;;5009286;28;20036;-60
2023/12/24 04:52:59;;;;;;;6.18;1.98;;;;;;;;;;5008478;28;20030;-60
2023/12/24 04:55:25;;;;;;;6.97;1.50;;;;;;;;;;5007190;28;20037;-60
2023/12/24 04:57:51;;;;;;;5.93;1.40;;;;;;;;;;5007623;28;20034;-60
2023/12/24 05:00:17;;;;;;;6.93;1.48;;;;;;;;;;5007637;28;20057;-60
2023/12/24 05:02:44;;;;;;;6.80;1.55;;;;;;;;;;5008248;28;20076;-60
2023/12/24 05:05:10;;;;;;;7.95;1.63;;;;;;;;;;5005447;28;20025;-60
2023/12/24 05:07:36;;;;;;;8.55;1.70;;;;;;;;;;5007276;28;20067;-60
2023/12/24 05:10:02;;;;;;;7.75;1.85;;;;;;;;;;5007229;28;20049;-60
2023/12/24 05:12:29;;;;;;;10.90;2.30;;;;;;;;;;5008090;28;20034;-60
2023/12/24 05:14:55;;;;;;;7.05;2.03;;;;;;;;;;5007359;28;20029;-60
2023/12/24 05:17:21;;;;;;;10.13;1.90;;;;;;;;;;5008243;28;20466;-60
2023/12/24 05:19:47;;;;;;;9.07;2.10;;;;;;;;;;5008456;28;20995;-60
2023/12/24 05:22:13;;;;;;;10.85;2.72;;;;;;;;;;5007039;28;20037;-60
2023/12/24 05:24:39;;;;;;;11.93;2.35;;;;;;;;;;5008376;28;20067;-61
2023/12/24 05:27:05;;;;;;;9.27;2.40;;;;;;;;;;5006577;28;20861;-60
2023/12/24 05:29:31;;;;;;;11.52;2.40;;;;;;;;;;5007607;28;20037;-60
2023/12/24 05:31:58;;;;;;;12.15;2.42;;;;;;;;;;5007998;28;20037;-60
2023/12/24 05:34:24;;;;;;;8.93;2.90;;;;;;;;;;5008327;28;20040;-60
2023/12/24 05:36:50;;;;;;;12.05;2.63;;;;;;;;;;5005900;28;20521;-60
2023/12/24 05:39:16;;;;;;;19.77;3.85;;;;;;;;;;5007869;28;20543;-60
2023/12/24 05:41:46;;;;;;;13.48;2.65;;;;;;;;;;5007469;28;20045;-60
2023/12/24 05:44:12;;;;;;;11.63;2.60;;;;;;;;;;5007779;28;20418;-60
2023/12/24 05:46:38;;;;;;;15.18;2.63;;;;;;;;;;5007419;28;20061;-60
2023/12/24 05:49:04;;;;;;;19.05;2.78;;;;;;;;;;5007497;28;20084;-60
2023/12/24 05:51:30;;;;;;;11.13;2.38;;;;;;;;;;5006591;28;20123;-60
2023/12/24 05:53:56;;;;;;;19.35;3.20;;;;;;;;;;5006083;28;21773;-60
2023/12/24 05:56:22;;;;;;;16.58;2.63;;;;;;;;;;5007154;28;20539;-60
2023/12/24 05:58:48;;;;;;;14.52;2.95;;;;;;;;;;5006836;28;20026;-60
2023/12/24 06:01:14;;;;;;;18.95;3.63;;;;;;;;;;5007456;28;20060;-60
2023/12/24 06:03:40;;;;;;;22.05;4.13;;;;;;;;;;5006802;28;20128;-60
2023/12/24 06:06:06;;;;;;;18.45;3.55;;;;;;;;;;5007093;28;20116;-60
2023/12/24 06:08:32;;;;;;;16.05;3.00;;;;;;;;;;5006633;28;20696;-60
2023/12/24 06:10:58;;;;;;;17.35;3.40;;;;;;;;;;5007728;28;20033;-60
2023/12/24 06:13:24;;;;;;;15.43;3.08;;;;;;;;;;5006743;28;20034;-60
2023/12/24 06:15:50;;;;;;;24.80;3.60;;;;;;;;;;5007307;28;20535;-60
2023/12/24 06:18:16;;;;;;;14.20;2.75;;;;;;;;;;5006953;28;20738;-60
2023/12/24 06:20:43;;;;;;;12.43;2.10;;;;;;;;;;5006926;28;20033;-60
2023/12/24 06:23:09;;;;;;;23.10;2.92;;;;;;;;;;5006463;28;20026;-60
2023/12/24 06:25:35;;;;;;;18.67;3.22;;;;;;;;;;5006255;28;20505;-60
2023/12/24 06:28:01;;;;;;;17.98;2.75;;;;;;;;;;5006419;28;20033;-60
2023/12/24 06:30:27;;;;;;;16.08;4.20;;;;;;;;;;5006823;28;20113;-60
2023/12/24 06:32:54;;;;;;;17.92;3.38;;;;;;;;;;5006090;28;20033;-60
2023/12/24 06:35:21;;;;;;;14.77;2.53;;;;;;;;;;5006581;28;20030;-60
2023/12/24 06:37:47;;;;;;;21.08;3.00;;;;;;;;;;5006904;28;20029;-60
2023/12/24 06:40:13;;;;;;;14.98;3.05;;;;;;;;;;5006294;28;20142;-60
2023/12/24 06:42:39;;;;;;;11.77;1.98;;;;;;;;;;5005559;28;20029;-60
2023/12/24 06:45:05;;;;;;;18.15;2.53;;;;;;;;;;5006671;28;20615;-60
2023/12/24 06:47:31;;;;;;;13.40;2.15;;;;;;;;;;5006569;28;20085;-60
2023/12/24 06:49:58;;;;;;;11.52;2.53;;;;;;;;;;5006336;28;20404;-60
2023/12/24 06:52:24;;;;;;;17.80;2.95;;;;;;;;;;5006449;28;20025;-60
2023/12/24 06:54:50;;;;;;;14.23;2.38;;;;;;;;;;5005750;28;20083;-60
2023/12/24 06:57:16;;;;;;;10.43;2.53;;;;;;;;;;5005005;28;20121;-60
2023/12/24 06:59:42;;;;;;;15.60;2.72;;;;;;;;;;5008713;28;20729;-60
2023/12/24 07:02:08;;;;;;;12.38;2.42;;;;;;;;;;5005484;28;20108;-60
2023/12/24 07:04:35;;;;;;;16.08;2.45;;;;;;;;;;5005757;28;20032;-60
2023/12/24 07:07:01;;;;;;;15.43;2.85;;;;;;;;;;5005724;28;20103;-60
2023/12/24 07:09:27;;;;;;;16.20;2.70;;;;;;;;;;5006125;28;20092;-60
2023/12/24 07:11:53;;;;;;;18.27;2.88;;;;;;;;;;5004884;28;20030;-60
2023/12/24 07:14:19;;;;;;;16.58;2.58;;;;;;;;;;5006320;28;20481;-60
2023/12/24 07:16:45;;;;;;;18.88;2.95;;;;;;;;;;5003582;28;20026;-60
2023/12/24 07:19:11;;;;;;;19.75;3.28;;;;;;;;;;5006248;28;20056;-60
2023/12/24 07:21:37;;;;;;;17.60;2.80;;;;;;;;;;5006380;28;20029;-60
2023/12/24 07:24:03;;;;;;;14.52;3.17;;;;;;;;;;5006036;28;20504;-60
2023/12/24 07:26:29;;;;;;;12.63;2.47;;;;;;;;;;5005733;28;20045;-60
2023/12/24 07:28:55;;;;;;;18.38;3.00;;;;;;;;;;5005396;28;20029;-60
2023/12/24 07:31:21;;;;;;;16.35;2.83;;;;;;;;;;5005891;28;20626;-60
2023/12/24 07:33:47;;;;;;;14.75;2.92;;;;;;;;;;5005264;28;20669;-60
2023/12/24 07:36:13;;;;;;;23.73;3.33;;;;;;;;;;5006231;28;20046;-60
2023/12/24 07:38:39;;;;;;;13.13;3.00;;;;;;;;;;5005931;28;20030;-60
2023/12/24 07:41:06;;;;;;;15.25;2.63;;;;;;;;;;5006239;28;20037;-60
2023/12/24 07:43:32;;;;;;;23.90;2.95;;;;;;;;;;5005054;28;21239;-60
2023/12/24 07:45:58;;;;;;;14.00;2.65;;;;;;;;;;5005384;28;20033;-60
2023/12/24 07:48:24;;;;;;;15.02;2.25;;;;;;;;;;5005904;28;20021;-61
2023/12/24 07:50:50;;;;;;;19.33;3.70;;;;;;;;;;5006167;28;20032;-60
2023/12/24 07:53:16;;;;;;;18.50;3.17;;;;;;;;;;5005806;28;20030;-60
2023/12/24 07:55:42;;;;;;;15.40;3.35;;;;;;;;;;5005960;28;20112;-60
2023/12/24 07:58:08;;;;;;;15.48;2.60;;;;;;;;;;5005411;28;20080;-60
2023/12/24 08:00:34;;;;;;;17.02;2.88;;;;;;;;;;5004659;28;20045;-60
2023/12/24 08:03:01;;;;;;;14.80;3.25;;;;;;;;;;5004938;28;20127;-60
2023/12/24 08:05:27;;;;;;;18.05;3.40;;;;;;;;;;5005481;28;20033;-60
2023/12/24 08:07:53;;;;;;;12.85;2.80;;;;;;;;;;5005203;28;20029;-60
2023/12/24 08:10:19;;;;;;;16.95;3.22;;;;;;;;;;5005470;28;20025;-60
2023/12/24 08:12:45;;;;;;;16.95;3.08;;;;;;;;;;5005168;28;20398;-60
2023/12/24 08:15:11;;;;;;;17.20;3.42;;;;;;;;;;5004804;28;20030;-60
2023/12/24 08:17:43;;;;;;;21.30;2.83;;;;;;;;;;5004916;28;21837;-60
2023/12/24 08:20:09;;;;;;;12.15;2.80;;;;;;;;;;5005865;28;20459;-60
2023/12/24 08:22:37;;;;;;;15.35;3.03;;;;;;;;;;5005075;28;20077;-60
2023/12/24 08:25:03;;;;;;;22.58;3.58;;;;;;;;;;5005388;28;21035;-60
2023/12/24 08:27:29;;;;;;;18.38;3.58;;;;;;;;;;5004970;28;20533;-60
2023/12/24 08:29:58;;;;;;;13.02;2.88;;;;;;;;;;5008026;28;20030;-60
2023/12/24 08:32:24;;;;;;;13.73;3.08;;;;;;;;;;5008257;28;20064;-60
2023/12/24 08:34:50;;;;;;;18.88;3.20;;;;;;;;;;5009164;28;20068;-60
2023/12/24 08:37:16;;;;;;;20.25;3.28;;;;;;;;;;5008175;28;20111;-60
2023/12/24 08:39:42;;;;;;;23.40;3.70;;;;;;;;;;5009129;28;20044;-61
2023/12/24 08:42:08;;;;;;;18.75;3.00;;;;;;;;;;5008433;28;20666;-60
2023/12/24 08:44:35;;;;;;;17.35;2.95;;;;;;;;;;5007684;28;20635;-60
2023/12/24 08:47:01;;;;;;;19.60;3.45;;;;;;;;;;5007893;28;20033;-60
2023/12/24 08:49:27;;;;;;;16.45;2.88;;;;;;;;;;5008983;28;20547;-60
2023/12/24 08:51:53;;;;;;;13.40;3.08;;;;;;;;;;5008387;28;20080;-61
2023/12/24 08:54:19;;;;;;;16.83;3.42;;;;;;;;;;5008504;28;20111;-60
2023/12/24 08:56:45;;;;;;;19.73;3.60;;;;;;;;;;5007904;28;20041;-61
2023/12/24 08:59:11;;;;;;;14.65;3.17;;;;;;;;;;5007837;28;20059;-60
2023/12/24 09:01:41;;;;;;;12.65;2.92;;;;;;;;;;5006409;28;20049;-60
2023/12/24 09:04:07;;;;;;;14.18;2.72;;;;;;;;;;5006951;28;20136;-60
2023/12/24 09:06:33;;;;;;;13.75;2.40;;;;;;;;;;5006740;28;20045;-61
2023/12/24 09:08:59;;;;;;;17.63;3.45;;;;;;;;;;5006846;28;20029;-61
2023/12/24 09:11:25;;;;;;;23.95;4.15;;;;;;;;;;5006741;28;20091;-60
2023/12/24 09:13:51;;;;;;;16.50;3.40;;;;;;;;;;5007991;28;20029;-60
2023/12/24 09:16:18;;;;;;;19.40;2.85;;;;;;;;;;5008126;28;20459;-61
2023/12/24 09:18:44;;;;;;;16.08;2.90;;;;;;;;;;5007107;28;20037;-60
2023/12/24 09:21:10;;;;;;;23.33;3.17;;;;;;;;;;5008244;28;20044;-61
2023/12/24 09:23:36;;;;;;;16.23;3.33;;;;;;;;;;5007376;28;20861;-60
2023/12/24 09:26:02;;;;;;;19.23;2.38;;;;;;;;;;5007772;28;20036;-60
2023/12/24 09:28:28;;;;;;;18.17;2.70;;;;;;;;;;5006279;28;20061;-61
2023/12/24 09:30:55;;;;;;;15.25;2.83;;;;;;;;;;5006862;28;22237;-60
2023/12/24 09:33:21;;;;;;;18.58;2.50;;;;;;;;;;5007549;28;20163;-61
2023/12/24 09:35:47;;;;;;;13.13;2.72;;;;;;;;;;5006574;28;20118;-60
2023/12/24 09:38:13;;;;;;;17.40;2.72;;;;;;;;;;5007845;28;21883;-60
2023/12/24 09:40:39;;;;;;;13.50;2.65;;;;;;;;;;5006272;28;20038;-60
2023/12/24 09:43:05;;;;;;;17.67;3.58;;;;;;;;;;5006282;28;20030;-61
2023/12/24 09:45:34;;;;;;;12.95;2.22;;;;;;;;;;5006417;28;20421;-61
2023/12/24 09:48:00;;;;;;;14.23;2.63;;;;;;;;;;5006725;28;20619;-61
2023/12/24 09:50:26;;;;;;;14.75;2.72;;;;;;;;;;5006015;28;20029;-61
2023/12/24 09:52:53;;;;;;;16.88;3.13;;;;;;;;;;5005800;28;20040;-61
2023/12/24 09:55:19;;;;;;;16.80;3.15;;;;;;;;;;5006230;28;20030;-61
2023/12/24 09:57:45;;;;;;;14.73;2.60;;;;;;;;;;5005848;28;20032;-60
2023/12/24 10:00:12;;;;;;;18.80;2.58;;;;;;;;;;5007027;28;20080;-61
2023/12/24 10:02:38;;;;;;;14.82;2.92;;;;;;;;;;5005946;28;20021;-61
2023/12/24 10:05:04;;;;;;;17.50;4.15;;;;;;;;;;5006611;28;20105;-61
2023/12/24 10:07:39;;;;;;;17.90;3.15;;;;;;;;;;5006650;28;20169;-60
2023/12/24 10:10:09;;;;;;;14.40;2.90;;;;;;;;;;5003236;28;20041;-60
2023/12/24 10:12:35;;;;;;;16.67;2.72;;;;;;;;;;5005428;28;20033;-61
2023/12/24 10:15:01;;;;;;;13.68;2.78;;;;;;;;;;5006317;28;20818;-61
2023/12/24 10:17:32;;;;;;;12.50;2.75;;;;;;;;;;5006222;28;20500;-61
2023/12/24 10:19:58;;;;;;;11.13;2.63;;;;;;;;;;5006310;28;20124;-60
2023/12/24 10:22:25;;;;;;;13.82;2.40;;;;;;;;;;5006866;28;20143;-61
2023/12/24 10:24:59;;;;;;;12.07;2.90;;;;;;;;;;5007113;28;20154;-60
2023/12/24 10:27:25;;;;;;;14.35;2.53;;;;;;;;;;5005583;28;20111;-60
2023/12/24 10:29:51;;;;;;;13.95;2.13;;;;;;;;;;5007620;28;20041;-61
2023/12/24 10:32:23;;;;;;;14.82;3.10;;;;;;;;;;5006104;28;20028;-60
2023/12/24 10:34:58;;;;;;;19.30;2.72;;;;;;;;;;5006259;28;20393;-61
2023/12/24 10:37:29;;;;;;;13.88;2.70;;;;;;;;;;5004316;28;20054;-61
2023/12/24 10:40:05;;;;;;;15.02;2.53;;;;;;;;;;5004214;28;20065;-60
2023/12/24 10:42:31;;;;;;;13.25;2.30;;;;;;;;;;4994966;28;20033;-61
2023/12/24 10:44:57;;;;;;;10.77;2.67;;;;;;;;;;4997583;28;20041;-60
2023/12/24 10:47:23;;;;;;;18.20;2.78;;;;;;;;;;4998825;28;20044;-60
2023/12/24 10:49:49;;;;;;;9.32;2.13;;;;;;;;;;5003736;28;20033;-61
2023/12/24 10:52:15;;;;;;;12.02;1.88;;;;;;;;;;5001729;28;20037;-61
2023/12/24 10:54:41;;;;;;;14.18;2.55;;;;;;;;;;5004045;28;20037;-61
2023/12/24 10:57:16;;;;;;;14.88;2.60;;;;;;;;;;5003372;28;20041;-61
2023/12/24 11:00:06;;;;;;;13.00;2.40;;;;;;;;;;5005103;28;20120;-61
2023/12/24 11:02:32;;;;;;;13.00;2.40;;;;;;;;;;5004909;28;20161;-61
2023/12/24 11:04:59;;;;;;;13.77;2.42;;;;;;;;;;5004003;28;20670;-60
2023/12/24 11:07:34;;;;;;;13.80;2.55;;;;;;;;;;5001953;28;20543;-61
2023/12/24 11:10:07;;;;;;;12.95;2.50;;;;;;;;;;5002857;28;20239;-60
2023/12/24 11:12:33;;;;;;;12.50;2.30;;;;;;;;;;5005499;28;20477;-61
2023/12/24 11:15:00;;;;;;;10.77;2.30;;;;;;;;;;5005085;28;20025;-61
2023/12/24 11:17:41;;;;;;;12.20;1.95;;;;;;;;;;5004445;28;20392;-61
2023/12/24 11:20:26;;;;;;;13.43;2.97;;;;;;;;;;5005211;28;20092;-61
2023/12/24 11:22:58;;;;;;;13.20;2.38;;;;;;;;;;5006537;28;20060;-61
2023/12/24 11:25:24;;;;;;;10.77;1.88;;;;;;;;;;5004547;28;20048;-61
2023/12/24 11:27:53;;;;;;;15.77;2.47;;;;;;;;;;5005635;28;20036;-60
2023/12/24 11:30:19;;;;;;;18.55;2.35;;;;;;;;;;5006239;28;20022;-61
2023/12/24 11:32:45;;;;;;;14.77;2.70;;;;;;;;;;5006175;28;21804;-61
2023/12/24 11:35:31;;;;;;;14.40;2.30;;;;;;;;;;5005113;28;20072;-61
2023/12/24 11:37:57;;;;;;;18.88;2.47;;;;;;;;;;5005549;28;20045;-61
2023/12/24 11:40:24;;;;;;;12.15;2.10;;;;;;;;;;5006198;28;20042;-60
2023/12/24 11:42:51;;;;;;;16.38;1.92;;;;;;;;;;5005329;28;20045;-61
2023/12/24 11:45:24;;;;;;;12.27;2.20;;;;;;;;;;5005369;28;20076;-61
2023/12/24 11:47:53;;;;;;;13.07;2.72;;;;;;;;;;5005269;28;20037;-61
2023/12/24 11:50:20;;;;;;;11.30;1.90;;;;;;;;;;5005791;28;20030;-60
2023/12/24 11:52:47;;;;;;;11.82;2.17;;;;;;;;;;5003420;28;20725;-60
2023/12/24 11:55:19;;;;;;;13.95;2.42;;;;;;;;;;5005072;28;20049;-61
2023/12/24 11:57:46;;;;;;;13.57;2.50;;;;;;;;;;5003349;28;20034;-61
2023/12/24 12:00:28;;;;;;;14.20;1.98;;;;;;;;;;5005674;28;20084;-61
2023/12/24 12:02:58;;;;;;;13.48;2.20;;;;;;;;;;5005482;28;20096;-61
2023/12/24 12:05:24;;;;;;;11.07;2.17;;;;;;;;;;5009113;28;20037;-61
2023/12/24 12:07:51;;;;;;;9.65;1.77;;;;;;;;;;5008331;28;20136;-61
2023/12/24 12:10:17;;;;;;;13.35;3.13;;;;;;;;;;5008069;28;20026;-61
2023/12/24 12:12:44;;;;;;;13.98;2.20;;;;;;;;;;5008388;28;20029;-61
2023/12/24 12:15:13;;;;;;;15.55;2.90;;;;;;;;;;5009278;28;20104;-61
2023/12/24 12:17:40;;;;;;;10.98;1.95;;;;;;;;;;5008798;28;20168;-61
2023/12/24 12:20:06;;;;;;;14.40;2.53;;;;;;;;;;5009507;28;20044;-61
2023/12/24 12:22:32;;;;;;;13.70;2.22;;;;;;;;;;5009012;28;20056;-60
2023/12/24 12:24:58;;;;;;;15.18;2.92;;;;;;;;;;5007566;28;20033;-61
2023/12/24 12:27:27;;;;;;;15.45;2.97;;;;;;;;;;5008196;28;20034;-61
2023/12/24 12:29:53;;;;;;;13.93;2.55;;;;;;;;;;5007860;28;20032;-61
2023/12/24 12:32:19;;;;;;;13.05;2.58;;;;;;;;;;5008358;28;20033;-60
2023/12/24 12:34:45;;;;;;;15.52;2.80;;;;;;;;;;5004217;28;20034;-60
2023/12/24 12:37:11;;;;;;;11.43;2.63;;;;;;;;;;5005312;28;20216;-61
2023/12/24 12:39:37;;;;;;;12.68;2.85;;;;;;;;;;5006241;28;20034;-61
2023/12/24 12:42:04;;;;;;;9.55;2.40;;;;;;;;;;5007126;28;20033;-61
2023/12/24 12:44:30;;;;;;;12.68;2.03;;;;;;;;;;5006778;28;20052;-61
2023/12/24 12:46:56;;;;;;;17.48;3.05;;;;;;;;;;5006780;28;20553;-61
2023/12/24 12:49:22;;;;;;;16.50;2.85;;;;;;;;;;5008336;28;21030;-61
2023/12/24 12:51:49;;;;;;;13.65;2.58;;;;;;;;;;5007092;28;20035;-61
2023/12/24 12:54:20;;;;;;;16.17;2.30;;;;;;;;;;5006786;28;20048;-61
2023/12/24 12:56:48;;;;;;;15.15;2.92;;;;;;;;;;5005792;28;20048;-61
2023/12/24 12:59:27;;;;;;;13.55;2.22;;;;;;;;;;5008161;28;20057;-61
2023/12/24 13:01:55;;;;;;;12.13;2.15;;;;;;;;;;5007749;28;20069;-61
2023/12/24 13:04:34;;;;;;;12.93;2.75;;;;;;;;;;5005562;28;20912;-61
2023/12/24 13:07:19;;;;;;;11.52;2.38;;;;;;;;;;5005783;28;20030;-60
2023/12/24 13:09:46;;;;;;;12.02;1.98;;;;;;;;;;5004975;28;20119;-61
2023/12/24 13:12:12;;;;;;;12.90;1.75;;;;;;;;;;5006291;28;20022;-61
2023/12/24 13:14:50;;;;;;;18.63;2.53;;;;;;;;;;5005128;28;20140;-61
2023/12/24 13:17:22;;;;;;;13.07;2.78;;;;;;;;;;5005604;28;20903;-61
2023/12/24 13:19:48;;;;;;;13.02;2.63;;;;;;;;;;5004464;28;20040;-61
2023/12/24 13:22:14;;;;;;;14.45;2.30;;;;;;;;;;5006394;28;20044;-61
2023/12/24 13:24:41;;;;;;;15.90;2.60;;;;;;;;;;5007581;28;20040;-61
2023/12/24 13:27:07;;;;;;;15.80;3.22;;;;;;;;;;5005343;28;20041;-61
2023/12/24 13:29:35;;;;;;;16.00;2.72;;;;;;;;;;5006514;28;20508;-61
2023/12/24 13:32:01;;;;;;;14.75;2.55;;;;;;;;;;5005583;28;20116;-60
2023/12/24 13:34:28;;;;;;;16.42;2.40;;;;;;;;;;5004106;28;20044;-61
2023/12/24 13:36:54;;;;;;;13.60;3.00;;;;;;;;;;5004432;28;20048;-61
2023/12/24 13:39:20;;;;;;;14.23;2.85;;;;;;;;;;5007010;28;20048;-61
2023/12/24 13:41:47;;;;;;;12.88;2.58;;;;;;;;;;5006967;28;20033;-61
2023/12/24 13:44:14;;;;;;;17.50;2.90;;;;;;;;;;5007361;28;20052;-61
2023/12/24 13:46:40;;;;;;;17.75;2.78;;;;;;;;;;5007076;28;20120;-61
2023/12/24 13:49:09;;;;;;;12.65;2.30;;;;;;;;;;5006408;28;20087;-60
2023/12/24 13:51:38;;;;;;;15.65;2.38;;;;;;;;;;5006977;28;20056;-60
2023/12/24 13:54:04;;;;;;;14.15;2.35;;;;;;;;;;5005663;28;20509;-61
2023/12/24 13:56:33;;;;;;;13.88;2.67;;;;;;;;;;4999268;28;21203;-61
2023/12/24 13:58:59;;;;;;;14.70;2.55;;;;;;;;;;5006615;28;20061;-60
2023/12/24 14:01:25;;;;;;;8.15;1.77;;;;;;;;;;5005869;28;20053;-61
2023/12/24 14:03:51;;;;;;;10.85;2.22;;;;;;;;;;5006299;28;20033;-61
2023/12/24 14:06:17;;;;;;;8.95;1.60;;;;;;;;;;5003700;28;20040;-61
2023/12/24 14:08:43;;;;;;;13.05;1.77;;;;;;;;;;5005585;28;20060;-60
2023/12/24 14:11:09;;;;;;;10.20;2.65;;;;;;;;;;5004514;28;20025;-61
2023/12/24 14:13:35;;;;;;;9.88;1.75;;;;;;;;;;5005190;28;20058;-61
2023/12/24 14:16:02;;;;;;;7.40;1.60;;;;;;;;;;5003630;28;20047;-61
2023/12/24 14:18:29;;;;;;;9.57;2.05;;;;;;;;;;5004481;28;20476;-61
2023/12/24 14:20:55;;;;;;;7.30;1.42;;;;;;;;;;5006381;28;20037;-61
2023/12/24 14:23:21;;;;;;;9.93;1.35;;;;;;;;;;5000720;28;20444;-60
2023/12/24 14:25:47;;;;;;;7.25;1.35;;;;;;;;;;5001734;28;20032;-61
2023/12/24 14:28:13;;;;;;;10.02;1.73;;;;;;;;;;5004905;28;20034;-61